CST,Max TemperatureF,Mean TemperatureF,Min TemperatureF,Max Dew PointF,MeanDew PointF,Min DewpointF,Max Humidity, Mean Humidity, Min Humidity, Max Sea Level PressureIn, Mean Sea Level PressureIn, Min Sea Level PressureIn, Max VisibilityMiles, Mean VisibilityMiles, Min VisibilityMiles, Max Wind SpeedMPH, Mean Wind SpeedMPH, Max Gust SpeedMPH,PrecipitationIn, CloudCover, Events, WindDirDegrees
2013-1-1,71,61,51,68,57,44,94,84,71,30.18,30.04,29.87,10,9,4,24,11,31,0.02,6,Rain,355
2013-1-2,50,46,42,45,40,37,91,83,68,30.32,30.25,30.15,10,9,5,18,12,24,0.04,8,Rain,2
2013-1-3,51,47,43,39,36,32,84,66,46,30.40,30.35,30.29,10,10,10,15,10,18,0.00,8,,19
2013-1-4,51,48,46,41,39,38,79,66,59,30.44,30.38,30.34,10,10,7,20,12,25,0.00,8,,17
2013-1-5,50,48,46,47,43,39,92,82,67,30.35,30.30,30.25,10,10,7,17,12,23,0.00,8,Rain,360
2013-1-6,64,52,40,47,44,39,97,76,43,30.36,30.29,30.26,10,9,2,14,7,18,0.00,1,,16
2013-1-7,64,52,39,56,48,37,95,84,61,30.31,30.17,30.01,10,9,3,16,8,20,0.00,3,Rain,51
2013-1-8,70,64,57,68,62,56,97,94,90,29.99,29.88,29.79,10,6,0,25,11,31,0.06,7,Fog-Rain-Thunderstorm,96
2013-1-9,70,64,57,68,62,56,95,92,84,30.04,29.92,29.81,10,9,2,22,11,31,0.67,5,Rain-Thunderstorm,240
2013-1-10,68,60,53,57,52,46,96,78,47,30.12,30.05,30.03,10,10,4,13,5,17,0.00,1,Thunderstorm,201
2013-1-11,75,63,51,70,63,50,97,92,78,30.05,29.93,29.83,10,6,0,18,7,23,0.00,5,Fog,154
2013-1-12,74,72,70,70,70,69,96,93,86,29.85,29.74,29.64,7,4,1,28,15,37,0.00,8,,167
2013-1-13,71,59,47,70,46,38,95,71,46,30.10,29.98,29.73,10,8,3,24,14,33,0.01,8,,2
2013-1-14,51,47,43,45,40,36,92,78,61,30.19,30.12,30.07,10,10,4,20,14,55,0.00,8,,21
2013-1-15,47,44,42,46,42,38,96,91,82,30.22,30.10,30.05,10,7,2,18,12,26,0.00,8,Rain,354
2013-1-16,59,48,36,38,28,16,81,52,19,30.38,30.29,30.22,10,10,10,22,13,33,0.00,2,,313
2013-1-17,67,52,36,43,33,27,87,57,27,30.46,30.39,30.31,10,10,10,15,6,21,0.00,0,,332
2013-1-18,66,52,38,50,43,36,96,75,42,30.50,30.42,30.33,10,10,7,12,5,17,0.00,0,,49
2013-1-19,71,60,48,54,50,47,96,75,44,30.33,30.24,30.17,10,10,1,14,6,21,0.00,0,,112
2013-1-20,73,59,45,60,52,45,97,80,49,30.25,30.18,30.11,10,8,0,13,4,,0.00,0,Fog,116
2013-1-21,72,61,50,60,54,49,96,81,45,30.23,30.17,30.12,10,8,0,13,4,,0.00,0,Fog,92
2013-1-22,74,61,48,60,55,48,97,81,47,30.30,30.24,30.18,10,7,0,15,5,18,0.00,0,Fog,77
2013-1-23,77,64,51,66,59,51,97,86,61,30.33,30.26,30.23,10,7,0,16,5,23,0.00,2,Fog,132
2013-1-24,78,69,60,65,63,59,96,84,59,30.30,30.22,30.15,10,10,2,20,9,24,0.00,0,,175
2013-1-25,78,70,61,66,64,60,96,85,63,30.17,30.11,30.05,10,10,7,20,12,28,0.00,0,,172
2013-1-26,77,70,64,66,64,63,95,82,60,30.15,30.10,30.06,10,10,7,21,12,25,0.00,1,,148
2013-1-27,76,70,64,70,67,62,95,89,79,30.10,30.04,29.98,10,10,7,24,12,32,0.00,5,,141
2013-1-28,78,74,69,70,69,68,94,88,71,30.08,29.99,29.92,10,8,5,28,16,33,0.00,6,,150
2013-1-29,79,74,68,70,67,43,94,84,40,29.92,29.74,29.59,10,8,5,31,20,40,0.00,4,,173
2013-1-30,70,58,46,44,20,4,56,23,8,30.25,30.05,29.76,10,10,10,30,16,40,0.00,2,,339
2013-1-31,69,54,40,49,34,15,79,49,13,30.34,30.27,30.23,10,10,10,17,5,22,0.00,0,,159